createdAt,value
2018-05-17T00:00:40.750Z,1006.26
2018-05-17T00:01:40.674Z,1006.24
2018-05-17T00:02:40.599Z,1006.25
2018-05-17T00:03:40.511Z,1006.26
2018-05-17T00:04:40.436Z,1006.24
2018-05-17T00:05:40.365Z,1006.23
2018-05-17T00:06:40.275Z,1006.24
2018-05-17T00:07:40.199Z,1006.26
2018-05-17T00:08:40.124Z,1006.24
2018-05-17T00:09:40.037Z,1006.24
2018-05-17T00:10:39.961Z,1006.22
2018-05-17T00:11:39.886Z,1006.26
2018-05-17T00:12:39.813Z,1006.25
2018-05-17T00:13:39.727Z,1006.25
2018-05-17T00:14:39.661Z,1006.26
2018-05-17T00:15:39.576Z,1006.27
2018-05-17T00:16:39.487Z,1006.27
2018-05-17T00:17:39.437Z,1006.28
2018-05-17T00:18:39.337Z,1006.30
2018-05-17T00:19:39.258Z,1006.33
2018-05-17T00:20:39.176Z,1006.30
2018-05-17T00:21:39.101Z,1006.32
2018-05-17T00:22:39.026Z,1006.28
2018-05-17T00:23:38.938Z,1006.33
2018-05-17T00:24:38.872Z,1006.32
2018-05-17T00:25:38.788Z,1006.32
2018-05-17T00:26:38.701Z,1006.34
2018-05-17T00:27:38.627Z,1006.30
2018-05-17T00:28:38.557Z,1006.34
2018-05-17T00:29:38.463Z,1006.33
2018-05-17T00:30:38.388Z,1006.33
2018-05-17T00:31:38.328Z,1006.33
2018-05-17T00:32:38.230Z,1006.34
2018-05-17T00:33:38.154Z,1006.34
2018-05-17T00:34:38.078Z,1006.35
2018-05-17T00:35:37.990Z,1006.35
2018-05-17T00:36:37.914Z,1006.34
2018-05-17T00:37:37.840Z,1006.33
2018-05-17T00:38:37.764Z,1006.36
2018-05-17T00:39:37.678Z,1006.32
2018-05-17T00:40:37.603Z,1006.33
2018-05-17T00:41:37.528Z,1006.32
2018-05-17T00:42:37.455Z,1006.29
2018-05-17T00:43:37.365Z,1006.30
2018-05-17T00:44:37.293Z,1006.29
2018-05-17T00:45:37.215Z,1006.33
2018-05-17T00:46:37.129Z,1006.30
2018-05-17T00:47:37.058Z,1006.27
2018-05-17T00:48:36.966Z,1006.25
2018-05-17T00:49:36.891Z,1006.23
2018-05-17T00:50:36.816Z,1006.25
2018-05-17T00:51:36.730Z,1006.25
2018-05-17T00:52:36.660Z,1006.24
2018-05-17T00:53:36.580Z,1006.25
2018-05-17T00:54:36.504Z,1006.27
2018-05-17T00:55:36.420Z,1006.27
2018-05-17T00:56:36.342Z,1006.28
2018-05-17T00:57:36.266Z,1006.29
2018-05-17T00:58:36.180Z,1006.27
2018-05-17T00:59:36.106Z,1006.26
2018-05-17T01:00:36.030Z,1006.27
2018-05-17T01:01:35.942Z,1006.24
2018-05-17T01:02:35.867Z,1006.25
2018-05-17T01:03:35.796Z,1006.24
2018-05-17T01:04:35.705Z,1006.20
2018-05-17T01:05:35.631Z,1006.22
2018-05-17T01:06:35.557Z,1006.22
2018-05-17T01:07:35.467Z,1006.25
2018-05-17T01:08:35.393Z,1006.21
2018-05-17T01:09:35.318Z,1006.20
2018-05-17T01:10:35.232Z,1006.17
2018-05-17T01:11:35.156Z,1006.17
2018-05-17T01:12:35.082Z,1006.18
2018-05-17T01:13:34.997Z,1006.17
2018-05-17T01:14:34.918Z,1006.17
2018-05-17T01:15:34.845Z,1006.16
2018-05-17T01:16:34.757Z,1006.13
2018-05-17T01:17:34.683Z,1006.12
2018-05-17T01:18:34.606Z,1006.13
2018-05-17T01:19:34.522Z,1006.14
2018-05-17T01:20:34.447Z,1006.17
2018-05-17T01:21:34.369Z,1006.15
2018-05-17T01:22:34.283Z,1006.15
2018-05-17T01:23:34.212Z,1006.15
2018-05-17T01:24:34.133Z,1006.16
2018-05-17T01:25:34.044Z,1006.14
2018-05-17T01:26:33.971Z,1006.11
2018-05-17T01:27:33.909Z,1006.09
2018-05-17T01:28:33.808Z,1006.07
2018-05-17T01:29:33.739Z,1006.13
2018-05-17T01:30:33.660Z,1006.10
2018-05-17T01:31:33.571Z,1006.06
2018-05-17T01:32:33.509Z,1006.06
2018-05-17T01:33:33.420Z,1006.06
2018-05-17T01:34:33.335Z,1006.08
2018-05-17T01:35:33.259Z,1006.03
2018-05-17T01:36:33.185Z,1006.08
2018-05-17T01:37:33.098Z,1006.06
2018-05-17T01:38:33.021Z,1006.01
2018-05-17T01:39:32.947Z,1005.99
2018-05-17T01:40:32.859Z,1005.98
2018-05-17T01:41:32.785Z,1005.95
2018-05-17T01:42:32.710Z,1005.99
2018-05-17T01:43:32.622Z,1005.99
2018-05-17T01:44:32.547Z,1005.95
2018-05-17T01:45:32.472Z,1006.01
2018-05-17T01:46:32.387Z,1006.00
2018-05-17T01:47:32.310Z,1005.99
2018-05-17T01:48:32.224Z,1006.01
2018-05-17T01:49:32.148Z,1006.00
2018-05-17T01:50:32.072Z,1006.00
2018-05-17T01:51:31.986Z,1006.04
2018-05-17T01:52:31.911Z,1005.98
2018-05-17T01:53:31.837Z,1005.99
2018-05-17T01:54:31.748Z,1005.99
2018-05-17T01:55:31.673Z,1006.00
2018-05-17T01:56:31.598Z,1006.00
2018-05-17T01:57:31.511Z,1006.03
2018-05-17T01:58:31.437Z,1005.99
2018-05-17T01:59:31.363Z,1005.98
2018-05-17T02:00:31.274Z,1005.97
2018-05-17T02:01:31.199Z,1006.02
2018-05-17T02:02:31.124Z,1006.03
2018-05-17T02:03:31.038Z,1006.07
2018-05-17T02:04:30.962Z,1006.06
2018-05-17T02:05:30.875Z,1006.05
2018-05-17T02:06:30.800Z,1006.04
2018-05-17T02:07:30.725Z,1006.07
2018-05-17T02:08:30.638Z,1006.07
2018-05-17T02:09:30.562Z,1006.06
2018-05-17T02:10:30.493Z,1006.07
2018-05-17T02:11:30.400Z,1006.12
2018-05-17T02:12:30.325Z,1006.13
2018-05-17T02:13:30.250Z,1006.14
2018-05-17T02:14:30.164Z,1006.15
2018-05-17T02:15:30.089Z,1006.16
2018-05-17T02:16:30.002Z,1006.12
2018-05-17T02:17:29.941Z,1006.16
2018-05-17T02:18:29.891Z,1006.14
2018-05-17T02:19:29.768Z,1006.15
2018-05-17T02:20:29.700Z,1006.16
2018-05-17T02:21:29.693Z,1006.19
2018-05-17T02:22:29.526Z,1006.19
2018-05-17T02:23:29.451Z,1006.17
2018-05-17T02:24:29.376Z,1006.20
2018-05-17T02:25:29.290Z,1006.20
2018-05-17T02:26:29.215Z,1006.21
2018-05-17T02:27:29.128Z,1006.17
2018-05-17T02:28:29.052Z,1006.16
2018-05-17T02:29:28.992Z,1006.13
2018-05-17T02:30:28.890Z,1006.16
2018-05-17T02:31:28.822Z,1006.13
2018-05-17T02:32:28.740Z,1006.09
2018-05-17T02:33:28.652Z,1006.11
2018-05-17T02:34:28.590Z,1006.11
2018-05-17T02:35:28.503Z,1006.14
2018-05-17T02:36:28.419Z,1006.11
2018-05-17T02:37:28.341Z,1006.15
2018-05-17T02:38:28.254Z,1006.17
2018-05-17T02:39:28.192Z,1006.20
2018-05-17T02:40:28.103Z,1006.19
2018-05-17T02:41:28.019Z,1006.20
2018-05-17T02:42:27.942Z,1006.18
2018-05-17T02:43:27.856Z,1006.18
2018-05-17T02:44:27.792Z,1006.18
2018-05-17T02:45:27.704Z,1006.19
2018-05-17T02:46:27.622Z,1006.19
2018-05-17T02:47:27.542Z,1006.26
2018-05-17T02:48:27.468Z,1006.23
2018-05-17T02:49:27.392Z,1006.22
2018-05-17T02:50:27.309Z,1006.22
2018-05-17T02:51:27.229Z,1006.24
2018-05-17T02:52:27.144Z,1006.25
2018-05-17T02:53:27.068Z,1006.21
2018-05-17T02:54:26.994Z,1006.22
2018-05-17T02:55:26.908Z,1006.20
2018-05-17T02:56:26.830Z,1006.17
2018-05-17T02:57:26.743Z,1006.17
2018-05-17T02:58:26.669Z,1006.18
2018-05-17T02:59:26.594Z,1006.17
2018-05-17T03:00:26.506Z,1006.17
2018-05-17T03:01:26.433Z,1006.18
2018-05-17T03:02:26.348Z,1006.21
2018-05-17T03:03:26.296Z,1006.25
2018-05-17T03:04:26.194Z,1006.23
2018-05-17T03:05:26.106Z,1006.25
2018-05-17T03:06:26.032Z,1006.21
2018-05-17T03:07:25.945Z,1006.26
2018-05-17T03:08:25.871Z,1006.24
2018-05-17T03:09:25.799Z,1006.22
2018-05-17T03:10:25.706Z,1006.26
2018-05-17T03:11:25.638Z,1006.27
2018-05-17T03:12:25.556Z,1006.24
2018-05-17T03:13:25.471Z,1006.22
2018-05-17T03:14:25.397Z,1006.23
2018-05-17T03:15:25.307Z,1006.22
2018-05-17T03:16:25.233Z,1006.24
2018-05-17T03:17:25.161Z,1006.27
2018-05-17T03:18:25.071Z,1006.31
2018-05-17T03:19:24.996Z,1006.30
2018-05-17T03:20:24.908Z,1006.30
2018-05-17T03:21:24.832Z,1006.33
2018-05-17T03:22:24.759Z,1006.33
2018-05-17T03:23:24.673Z,1006.34
2018-05-17T03:24:24.601Z,1006.35
2018-05-17T03:25:24.510Z,1006.37
2018-05-17T03:26:24.433Z,1006.34
2018-05-17T03:27:24.358Z,1006.39
2018-05-17T03:28:24.272Z,1006.34
2018-05-17T03:29:24.197Z,1006.38
2018-05-17T03:30:24.122Z,1006.39
2018-05-17T03:31:24.036Z,1006.38
2018-05-17T03:32:23.959Z,1006.40
2018-05-17T03:33:23.872Z,1006.39
2018-05-17T03:34:23.797Z,1006.40
2018-05-17T03:35:23.722Z,1006.43
2018-05-17T03:36:23.634Z,1006.42
2018-05-17T03:37:23.560Z,1006.43
2018-05-17T03:38:23.473Z,1006.40
2018-05-17T03:39:23.398Z,1006.45
2018-05-17T03:40:23.323Z,1006.38
2018-05-17T03:41:23.235Z,1006.41
2018-05-17T03:42:23.160Z,1006.47
2018-05-17T03:43:23.074Z,1006.42
2018-05-17T03:44:22.999Z,1006.45
2018-05-17T03:45:22.925Z,1006.45
2018-05-17T03:46:22.836Z,1006.45
2018-05-17T03:47:22.761Z,1006.45
2018-05-17T03:48:22.675Z,1006.48
2018-05-17T03:49:22.602Z,1006.47
2018-05-17T03:50:22.525Z,1006.51
2018-05-17T03:51:22.436Z,1006.49
2018-05-17T03:52:22.362Z,1006.48
2018-05-17T03:53:22.286Z,1006.49
2018-05-17T03:54:22.200Z,1006.51
2018-05-17T03:55:22.125Z,1006.48
2018-05-17T03:56:22.037Z,1006.50
2018-05-17T03:57:21.962Z,1006.46
2018-05-17T03:58:21.888Z,1006.49
2018-05-17T03:59:21.801Z,1006.50
2018-05-17T04:00:21.725Z,1006.53
2018-05-17T04:01:21.702Z,1006.51
2018-05-17T04:02:21.562Z,1006.49
2018-05-17T04:03:21.482Z,1006.53
2018-05-17T04:04:21.401Z,1006.52
2018-05-17T04:05:21.332Z,1006.57
2018-05-17T04:06:21.241Z,1006.59
2018-05-17T04:07:21.176Z,1006.55
2018-05-17T04:08:21.077Z,1006.63
2018-05-17T04:09:21.006Z,1006.59
2018-05-17T04:10:20.927Z,1006.54
2018-05-17T04:11:20.838Z,1006.58
2018-05-17T04:12:20.777Z,1006.62
2018-05-17T04:13:20.689Z,1006.62
2018-05-17T04:14:20.603Z,1006.62
2018-05-17T04:15:20.527Z,1006.65
2018-05-17T04:16:20.439Z,1006.63
2018-05-17T04:17:20.366Z,1006.63
2018-05-17T04:18:20.289Z,1006.66
2018-05-17T04:19:20.203Z,1006.63
2018-05-17T04:20:20.127Z,1006.63
2018-05-17T04:21:20.042Z,1006.65
2018-05-17T04:22:19.966Z,1006.66
2018-05-17T04:23:19.882Z,1006.68
2018-05-17T04:24:19.803Z,1006.70
2018-05-17T04:25:19.728Z,1006.71
2018-05-17T04:26:19.640Z,1006.69
2018-05-17T04:27:19.565Z,1006.71
2018-05-17T04:28:19.479Z,1006.73
2018-05-17T04:29:19.492Z,1006.73
2018-05-17T04:30:19.338Z,1006.73
2018-05-17T04:31:19.243Z,1006.76
2018-05-17T04:32:19.166Z,1006.74
2018-05-17T04:33:19.091Z,1006.76
2018-05-17T04:34:19.005Z,1006.75
2018-05-17T04:35:18.997Z,1006.73
2018-05-17T04:36:18.842Z,1006.75
2018-05-17T04:37:18.780Z,1006.74
2018-05-17T04:38:18.691Z,1006.73
2018-05-17T04:39:18.605Z,1006.70
2018-05-17T04:40:18.530Z,1006.66
2018-05-17T04:41:18.442Z,1006.75
2018-05-17T04:42:18.368Z,1006.70
2018-05-17T04:43:18.292Z,1006.76
2018-05-17T04:44:18.206Z,1006.75
2018-05-17T04:45:18.131Z,1006.75
2018-05-17T04:46:18.055Z,1006.77
2018-05-17T04:47:17.971Z,1006.74
2018-05-17T04:48:17.893Z,1006.79
2018-05-17T04:49:17.807Z,1006.83
2018-05-17T04:50:17.732Z,1006.84
2018-05-17T04:51:17.656Z,1006.84
2018-05-17T04:52:17.570Z,1006.89
2018-05-17T04:53:17.494Z,1006.88
2018-05-17T04:54:17.418Z,1006.87
2018-05-17T04:55:17.332Z,1006.86
2018-05-17T04:56:17.258Z,1006.91
2018-05-17T04:57:17.182Z,1006.94
2018-05-17T04:58:17.094Z,1006.93
2018-05-17T04:59:17.021Z,1006.93
2018-05-17T05:00:16.943Z,1006.96
2018-05-17T05:01:16.859Z,1006.97
2018-05-17T05:02:16.783Z,1006.96
2018-05-17T05:03:16.709Z,1006.93
2018-05-17T05:04:16.619Z,1006.96
2018-05-17T05:05:16.548Z,1006.98
2018-05-17T05:06:16.471Z,1007.00
2018-05-17T05:07:16.384Z,1006.99
2018-05-17T05:08:16.310Z,1007.05
2018-05-17T05:09:16.233Z,1007.05
2018-05-17T05:10:16.145Z,1007.03
2018-05-17T05:11:16.083Z,1007.01
2018-05-17T05:12:15.995Z,1007.04
2018-05-17T05:13:15.909Z,1007.03
2018-05-17T05:14:15.834Z,1006.99
2018-05-17T05:15:15.760Z,1007.02
2018-05-17T05:16:15.687Z,1007.05
2018-05-17T05:17:15.595Z,1007.07
2018-05-17T05:18:15.522Z,1007.09
2018-05-17T05:19:15.434Z,1007.08
2018-05-17T05:20:15.359Z,1007.10
2018-05-17T05:21:15.285Z,1007.11
2018-05-17T05:22:15.216Z,1007.12
2018-05-17T05:23:15.122Z,1007.11
2018-05-17T05:24:15.047Z,1007.16
2018-05-17T05:25:15.055Z,1007.13
2018-05-17T05:26:14.884Z,1007.18
2018-05-17T05:27:14.815Z,1007.19
2018-05-17T05:28:14.735Z,1007.20
2018-05-17T05:29:14.648Z,1007.24
2018-05-17T05:30:14.573Z,1007.19
2018-05-17T05:31:14.499Z,1007.14
2018-05-17T05:32:14.423Z,1007.20
2018-05-17T05:33:14.336Z,1007.17
2018-05-17T05:34:14.261Z,1007.20
2018-05-17T05:35:14.186Z,1007.18
2018-05-17T05:36:14.098Z,1007.19
2018-05-17T05:37:14.023Z,1007.19
2018-05-17T05:38:13.948Z,1007.21
2018-05-17T05:39:13.862Z,1007.20
2018-05-17T05:40:13.787Z,1007.15
2018-05-17T05:41:13.712Z,1007.15
2018-05-17T05:42:13.637Z,1007.21
2018-05-17T05:43:13.608Z,1007.20
2018-05-17T05:44:13.475Z,1007.18
2018-05-17T05:45:13.398Z,1007.22
2018-05-17T05:46:13.324Z,1007.20
2018-05-17T05:47:13.237Z,1007.20
2018-05-17T05:48:13.163Z,1007.20
2018-05-17T05:49:13.142Z,1007.22
2018-05-17T05:50:12.999Z,1007.23
2018-05-17T05:51:12.924Z,1007.21
2018-05-17T05:52:12.851Z,1007.22
2018-05-17T05:53:12.764Z,1007.27
2018-05-17T05:54:12.688Z,1007.26
2018-05-17T05:55:12.614Z,1007.24
2018-05-17T05:56:12.540Z,1007.27
2018-05-17T05:57:12.453Z,1007.30
2018-05-17T05:58:12.378Z,1007.31
2018-05-17T05:59:12.302Z,1007.31
2018-05-17T06:00:12.217Z,1007.36
2018-05-17T06:01:12.144Z,1007.36
2018-05-17T06:02:12.065Z,1007.34
2018-05-17T06:03:11.978Z,1007.33
2018-05-17T06:04:11.902Z,1007.37
2018-05-17T06:05:11.826Z,1007.35
2018-05-17T06:06:11.752Z,1007.36
2018-05-17T06:07:11.664Z,1007.41
2018-05-17T06:08:11.590Z,1007.41
2018-05-17T06:09:11.518Z,1007.46
2018-05-17T06:10:11.441Z,1007.50
2018-05-17T06:11:11.356Z,1007.47
2018-05-17T06:12:11.290Z,1007.47
2018-05-17T06:13:11.207Z,1007.47
2018-05-17T06:14:11.122Z,1007.51
2018-05-17T06:15:11.042Z,1007.50
2018-05-17T06:16:10.967Z,1007.48
2018-05-17T06:17:10.890Z,1007.48
2018-05-17T06:18:10.802Z,1007.45
2018-05-17T06:19:10.728Z,1007.52
2018-05-17T06:20:10.652Z,1007.52
2018-05-17T06:21:10.566Z,1007.51
2018-05-17T06:22:10.490Z,1007.47
2018-05-17T06:23:10.421Z,1007.49
2018-05-17T06:24:10.345Z,1007.55
2018-05-17T06:25:10.254Z,1007.54
2018-05-17T06:26:10.192Z,1007.54
2018-05-17T06:27:10.103Z,1007.54
2018-05-17T06:28:10.029Z,1007.53
2018-05-17T06:29:09.943Z,1007.56
2018-05-17T06:30:09.869Z,1007.59
2018-05-17T06:31:09.793Z,1007.59
2018-05-17T06:32:09.719Z,1007.64
2018-05-17T06:33:09.642Z,1007.61
2018-05-17T06:34:09.554Z,1007.57
2018-05-17T06:35:09.480Z,1007.60
2018-05-17T06:36:09.405Z,1007.59
2018-05-17T06:37:09.329Z,1007.59
2018-05-17T06:38:09.244Z,1007.65
2018-05-17T06:39:09.168Z,1007.62
2018-05-17T06:40:09.094Z,1007.61
2018-05-17T06:41:09.022Z,1007.60
2018-05-17T06:42:08.944Z,1007.64
2018-05-17T06:43:08.855Z,1007.63
2018-05-17T06:44:08.781Z,1007.62
2018-05-17T06:45:08.707Z,1007.64
2018-05-17T06:46:08.631Z,1007.62
2018-05-17T06:47:08.556Z,1007.64
2018-05-17T06:48:08.470Z,1007.64
2018-05-17T06:49:08.395Z,1007.66
2018-05-17T06:50:08.320Z,1007.68
2018-05-17T06:51:08.245Z,1007.66
2018-05-17T06:52:08.169Z,1007.70
2018-05-17T06:53:08.082Z,1007.68
2018-05-17T06:54:08.007Z,1007.71
2018-05-17T06:55:07.933Z,1007.70
2018-05-17T06:56:07.857Z,1007.71
2018-05-17T06:57:07.781Z,1007.67
2018-05-17T06:58:07.695Z,1007.70
2018-05-17T06:59:07.620Z,1007.68
2018-05-17T07:00:07.546Z,1007.69
2018-05-17T07:01:07.483Z,1007.70
2018-05-17T07:02:07.396Z,1007.69
2018-05-17T07:03:07.307Z,1007.72
2018-05-17T07:04:07.245Z,1007.71
2018-05-17T07:05:07.157Z,1007.68
2018-05-17T07:06:07.085Z,1007.66
2018-05-17T07:07:07.007Z,1007.69
2018-05-17T07:08:06.922Z,1007.69
2018-05-17T07:09:06.846Z,1007.66
2018-05-17T07:10:06.772Z,1007.72
2018-05-17T07:11:06.697Z,1007.66
2018-05-17T07:12:06.622Z,1007.72
2018-05-17T07:13:06.546Z,1007.71
2018-05-17T07:14:06.458Z,1007.71
2018-05-17T07:15:06.384Z,1007.77
2018-05-17T07:16:06.310Z,1007.79
2018-05-17T07:17:06.248Z,1007.79
2018-05-17T07:18:06.273Z,1007.82
2018-05-17T07:19:06.072Z,1007.80
2018-05-17T07:20:06.248Z,1007.79
2018-05-17T07:21:05.923Z,1007.83
2018-05-17T07:22:05.848Z,1007.81
2018-05-17T07:23:05.773Z,1007.84
2018-05-17T07:24:05.786Z,1007.84
2018-05-17T07:25:05.611Z,1007.88
2018-05-17T07:26:05.535Z,1007.86
2018-05-17T07:27:05.460Z,1007.87
2018-05-17T07:28:05.388Z,1007.90
2018-05-17T07:29:05.311Z,1007.91
2018-05-17T07:30:05.236Z,1007.90
2018-05-17T07:31:05.160Z,1007.93
2018-05-17T07:32:05.103Z,1007.97
2018-05-17T07:33:05.105Z,1007.98
2018-05-17T07:34:04.936Z,1007.96
2018-05-17T07:35:04.861Z,1007.99
2018-05-17T07:36:04.787Z,1008.03
2018-05-17T07:37:04.711Z,1008.02
2018-05-17T07:38:04.637Z,1008.07
2018-05-17T07:39:04.562Z,1008.04
2018-05-17T07:40:04.738Z,1008.12
2018-05-17T07:41:04.412Z,1008.10
2018-05-17T07:42:04.338Z,1008.10
2018-05-17T07:43:04.262Z,1008.14
2018-05-17T07:44:04.191Z,1008.13
2018-05-17T07:45:04.115Z,1008.07
2018-05-17T07:46:04.038Z,1008.08
2018-05-17T07:47:03.964Z,1008.12
2018-05-17T07:48:03.900Z,1008.12
2018-05-17T07:49:03.827Z,1008.08
2018-05-17T07:50:04.002Z,1008.11
2018-05-17T07:51:03.677Z,1008.13
2018-05-17T07:52:03.678Z,1008.16
2018-05-17T07:53:03.539Z,1008.13
2018-05-17T07:54:03.464Z,1008.17
2018-05-17T07:55:03.391Z,1008.16
2018-05-17T07:56:03.327Z,1008.15
2018-05-17T07:57:03.240Z,1008.12
2018-05-17T07:58:03.178Z,1008.16
2018-05-17T07:59:03.104Z,1008.16
2018-05-17T08:00:03.327Z,1008.22
2018-05-17T08:01:02.953Z,1008.21
2018-05-17T08:02:02.890Z,1008.20
2018-05-17T08:03:02.816Z,1008.25
2018-05-17T08:04:02.739Z,1008.24
2018-05-17T08:05:02.665Z,1008.24
2018-05-17T08:06:02.592Z,1008.25
2018-05-17T08:07:02.529Z,1008.29
2018-05-17T08:08:02.457Z,1008.28
2018-05-17T08:09:02.384Z,1008.30
2018-05-17T08:10:02.315Z,1008.32
2018-05-17T08:11:02.240Z,1008.28
2018-05-17T08:12:02.166Z,1008.29
2018-05-17T08:13:02.091Z,1008.27
2018-05-17T08:14:02.031Z,1008.35
2018-05-17T08:15:01.955Z,1008.33
2018-05-17T08:16:01.881Z,1008.38
2018-05-17T08:17:01.824Z,1008.39
2018-05-17T08:18:01.751Z,1008.42
2018-05-17T08:19:01.667Z,1008.40
2018-05-17T08:20:01.860Z,1008.40
2018-05-17T08:21:01.530Z,1008.39
2018-05-17T08:22:01.481Z,1008.38
2018-05-17T08:23:01.392Z,1008.39
2018-05-17T08:24:01.331Z,1008.36
2018-05-17T08:25:01.257Z,1008.35
2018-05-17T08:26:01.181Z,1008.36
2018-05-17T08:27:01.117Z,1008.37
2018-05-17T08:28:01.043Z,1008.44
2018-05-17T08:29:01.072Z,1008.39
2018-05-17T08:30:00.906Z,1008.38
2018-05-17T08:31:00.843Z,1008.39
2018-05-17T08:32:00.768Z,1008.40
2018-05-17T08:33:00.706Z,1008.43
2018-05-17T08:34:00.632Z,1008.53
2018-05-17T08:35:00.557Z,1008.51
2018-05-17T08:36:00.580Z,1008.54
2018-05-17T08:37:00.419Z,1008.53
2018-05-17T08:38:00.344Z,1008.60
2018-05-17T08:39:00.282Z,1008.54
2018-05-17T08:40:00.208Z,1008.48
2018-05-17T08:41:00.144Z,1008.58
2018-05-17T08:42:00.069Z,1008.60
2018-05-17T08:42:59.997Z,1008.45
2018-05-17T08:43:59.934Z,1008.55
2018-05-17T08:44:59.857Z,1008.59
2018-05-17T08:45:59.794Z,1008.61
2018-05-17T08:46:59.722Z,1008.65
2018-05-17T08:47:59.644Z,1008.59
2018-05-17T08:48:59.588Z,1008.63
2018-05-17T08:49:59.509Z,1008.62
2018-05-17T08:50:59.433Z,1008.57
2018-05-17T08:51:59.371Z,1008.63
2018-05-17T08:52:59.296Z,1008.60
2018-05-17T08:53:59.234Z,1008.58
2018-05-17T08:54:59.159Z,1008.61
2018-05-17T08:55:59.096Z,1008.55
2018-05-17T08:56:59.021Z,1008.59
2018-05-17T08:57:58.958Z,1008.62
2018-05-17T08:58:58.886Z,1008.69
2018-05-17T08:59:58.812Z,1008.67
2018-05-17T09:00:58.759Z,1008.72
2018-05-17T09:01:58.684Z,1008.53
2018-05-17T09:02:58.610Z,1008.60
2018-05-17T09:03:58.560Z,1008.56
2018-05-17T09:04:58.471Z,1008.56
2018-05-17T09:05:58.410Z,1008.62
2018-05-17T09:06:58.335Z,1008.79
2018-05-17T09:07:58.272Z,1008.58
2018-05-17T09:08:58.197Z,1008.63
2018-05-17T09:09:58.138Z,1008.78
2018-05-17T09:10:58.060Z,1008.76
2018-05-17T09:11:57.997Z,1008.81
2018-05-17T09:12:57.923Z,1008.87
2018-05-17T09:13:57.861Z,1008.92
2018-05-17T09:14:57.814Z,1008.89
2018-05-17T09:15:57.723Z,1008.97
2018-05-17T09:16:57.649Z,1008.93
2018-05-17T09:17:57.589Z,1008.72
2018-05-17T09:18:57.566Z,1008.69
2018-05-17T09:19:57.448Z,1008.73
2018-05-17T09:20:57.374Z,1008.88
2018-05-17T09:21:57.311Z,1008.77
2018-05-17T09:22:57.237Z,1009.02
2018-05-17T09:23:57.174Z,1008.98
2018-05-17T09:24:57.098Z,1008.86
2018-05-17T09:25:57.040Z,1008.98
2018-05-17T09:26:56.962Z,1008.88
2018-05-17T09:27:56.899Z,1008.95
2018-05-17T09:28:56.824Z,1009.00
2018-05-17T09:29:56.762Z,1008.99
2018-05-17T09:30:56.690Z,1008.97
2018-05-17T09:31:56.622Z,1008.99
2018-05-17T09:32:56.551Z,1008.94
2018-05-17T09:33:56.475Z,1008.86
2018-05-17T09:34:56.414Z,1008.92
2018-05-17T09:35:56.339Z,1008.87
2018-05-17T09:36:56.275Z,1009.00
2018-05-17T09:37:56.200Z,1008.95
2018-05-17T09:38:56.125Z,1008.87
2018-05-17T09:39:56.068Z,1008.91
2018-05-17T09:40:56.050Z,1008.84
2018-05-17T09:41:55.925Z,1008.81
2018-05-17T09:42:55.850Z,1008.89
2018-05-17T09:43:55.775Z,1008.88
2018-05-17T09:44:55.714Z,1008.91
2018-05-17T09:45:55.639Z,1008.95
2018-05-17T09:46:55.564Z,1008.92
2018-05-17T09:47:55.501Z,1008.91
2018-05-17T09:48:55.426Z,1008.94
2018-05-17T09:49:55.351Z,1008.94
2018-05-17T09:50:55.277Z,1009.00
2018-05-17T09:51:55.214Z,1008.91
2018-05-17T09:52:55.139Z,1008.97
2018-05-17T09:53:55.064Z,1009.01
2018-05-17T09:54:55.038Z,1009.00
2018-05-17T09:55:54.926Z,1009.00
2018-05-17T09:56:54.852Z,1009.11
2018-05-17T09:57:54.793Z,1008.94
2018-05-17T09:58:54.714Z,1009.05
2018-05-17T09:59:54.641Z,1008.95
2018-05-17T10:00:54.569Z,1008.99
2018-05-17T10:01:54.501Z,1008.97
2018-05-17T10:02:54.440Z,1008.95
2018-05-17T10:03:54.352Z,1008.99
2018-05-17T10:04:54.278Z,1008.94
2018-05-17T10:05:54.215Z,1008.97
2018-05-17T10:06:54.140Z,1008.96
2018-05-17T10:07:54.071Z,1008.94
2018-05-17T10:08:54.089Z,1008.96
2018-05-17T10:09:53.945Z,1008.93
2018-05-17T10:10:53.853Z,1009.00
2018-05-17T10:11:53.778Z,1008.99
2018-05-17T10:12:53.716Z,1008.97
2018-05-17T10:13:53.642Z,1008.99
2018-05-17T10:14:53.572Z,1008.98
2018-05-17T10:15:53.492Z,1008.91
2018-05-17T10:16:53.442Z,1008.92
2018-05-17T10:17:53.353Z,1008.97
2018-05-17T10:18:53.285Z,1008.95
2018-05-17T10:19:53.204Z,1008.96
2018-05-17T10:20:53.144Z,1008.91
2018-05-17T10:21:53.085Z,1008.95
2018-05-17T10:22:52.991Z,1008.91
2018-05-17T10:23:52.918Z,1008.96
2018-05-17T10:24:52.855Z,1008.94
2018-05-17T10:25:52.780Z,1008.92
2018-05-17T10:26:52.704Z,1008.93
2018-05-17T10:27:52.633Z,1008.93
2018-05-17T10:28:52.556Z,1008.90
2018-05-17T10:29:52.497Z,1008.97
2018-05-17T10:30:52.419Z,1008.92
2018-05-17T10:31:52.343Z,1008.89
2018-05-17T10:32:52.274Z,1009.04
2018-05-17T10:33:52.205Z,1009.02
2018-05-17T10:34:52.143Z,1008.93
2018-05-17T10:35:52.055Z,1008.92
2018-05-17T10:36:51.984Z,1009.07
2018-05-17T10:37:51.918Z,1009.30
2018-05-17T10:38:51.846Z,1009.25
2018-05-17T10:39:51.769Z,1009.20
2018-05-17T10:40:51.693Z,1009.24
2018-05-17T10:41:51.631Z,1009.07
2018-05-17T10:42:51.556Z,1009.13
2018-05-17T10:43:51.481Z,1009.03
2018-05-17T10:44:51.419Z,1009.16
2018-05-17T10:45:51.344Z,1009.07
2018-05-17T10:46:51.270Z,1009.12
2018-05-17T10:47:51.207Z,1009.06
2018-05-17T10:48:51.139Z,1009.14
2018-05-17T10:49:51.073Z,1009.19
2018-05-17T10:50:50.997Z,1009.18
2018-05-17T10:51:50.921Z,1009.22
2018-05-17T10:52:50.859Z,1009.21
2018-05-17T10:53:50.782Z,1009.20
2018-05-17T10:54:50.728Z,1009.24
2018-05-17T10:55:50.646Z,1009.24
2018-05-17T10:56:50.582Z,1009.27
2018-05-17T10:57:50.508Z,1009.20
2018-05-17T10:58:50.446Z,1009.21
2018-05-17T10:59:50.373Z,1009.18
2018-05-17T11:00:50.308Z,1009.19
2018-05-17T11:01:50.233Z,1009.20
2018-05-17T11:02:50.174Z,1009.19
2018-05-17T11:03:50.108Z,1009.24
2018-05-17T11:04:50.034Z,1009.21
2018-05-17T11:05:49.972Z,1009.28
2018-05-17T11:06:49.909Z,1009.19
2018-05-17T11:07:49.833Z,1009.20
2018-05-17T11:08:49.772Z,1009.08
2018-05-17T11:09:49.722Z,1009.17
2018-05-17T11:10:49.634Z,1009.21
2018-05-17T11:11:49.573Z,1009.17
2018-05-17T11:12:49.522Z,1009.25
2018-05-17T11:13:49.435Z,1009.20
2018-05-17T11:14:49.376Z,1009.18
2018-05-17T11:15:49.310Z,1009.16
2018-05-17T11:16:49.248Z,1009.26
2018-05-17T11:17:49.173Z,1009.22
2018-05-17T11:18:49.110Z,1009.23
2018-05-17T11:19:49.049Z,1009.26
2018-05-17T11:20:48.985Z,1009.28
2018-05-17T11:21:48.911Z,1009.31
2018-05-17T11:22:48.849Z,1009.33
2018-05-17T11:23:48.789Z,1009.28
2018-05-17T11:24:48.724Z,1009.34
2018-05-17T11:25:48.678Z,1009.37
2018-05-17T11:26:48.585Z,1009.33
2018-05-17T11:27:48.524Z,1009.32
2018-05-17T11:28:48.461Z,1009.32
2018-05-17T11:29:48.401Z,1009.34
2018-05-17T11:30:48.327Z,1009.12
2018-05-17T11:31:48.261Z,1009.34
2018-05-17T11:32:48.200Z,1009.31
2018-05-17T11:33:48.136Z,1009.38
2018-05-17T11:34:48.074Z,1009.36
2018-05-17T11:35:48.012Z,1009.31
2018-05-17T11:36:47.937Z,1009.29
2018-05-17T11:37:47.875Z,1009.30
2018-05-17T11:38:47.812Z,1009.19
2018-05-17T11:40:47.687Z,1009.16
2018-05-17T11:41:47.613Z,1009.16
2018-05-17T11:42:47.551Z,1009.16
2018-05-17T11:43:47.492Z,1009.09
2018-05-17T11:44:47.434Z,1009.11
2018-05-17T11:45:47.351Z,1009.20
2018-05-17T11:46:47.288Z,1009.14
2018-05-17T11:47:47.226Z,1009.27
2018-05-17T11:48:47.154Z,1009.22
2018-05-17T11:49:47.088Z,1009.24
2018-05-17T11:50:47.027Z,1009.14
2018-05-17T11:51:46.952Z,1009.23
2018-05-17T11:52:46.888Z,1009.18
2018-05-17T11:53:46.816Z,1009.17
2018-05-17T11:54:46.758Z,1009.21
2018-05-17T11:55:46.689Z,1009.20
2018-05-17T11:56:46.626Z,1009.22
2018-05-17T11:57:46.554Z,1009.20
2018-05-17T11:58:46.493Z,1009.25
2018-05-17T11:59:46.415Z,1009.25
2018-05-17T12:00:46.354Z,1009.19
2018-05-17T12:01:46.289Z,1009.24
2018-05-17T12:02:46.262Z,1009.21
2018-05-17T12:03:46.154Z,1009.11
2018-05-17T12:04:46.098Z,1009.10
2018-05-17T12:05:46.015Z,1009.13